sensor_id;sensor_type;location;lat;lon;timestamp;pressure;altitude;pressure_sealevel;temperature;humidity
29935;BME280;19905;53.370;-6.314;2022-12-07T00:02:19;102389.69;;;3.53;100.00
29935;BME280;19905;53.370;-6.314;2022-12-07T00:04:48;102391.44;;;3.53;100.00
29935;BME280;19905;53.370;-6.314;2022-12-07T00:07:17;102387.13;;;3.50;100.00
29935;BME280;19905;53.370;-6.314;2022-12-07T00:09:55;102397.63;;;3.47;100.00
29935;BME280;19905;53.370;-6.314;2022-12-07T00:12:24;102389.88;;;3.43;100.00
29935;BME280;19905;53.370;-6.314;2022-12-07T00:14:52;102390.88;;;3.37;100.00
29935;BME280;19905;53.370;-6.314;2022-12-07T00:17:22;102387.44;;;3.35;100.00
29935;BME280;19905;53.370;-6.314;2022-12-07T00:19:51;102390.06;;;3.35;100.00
29935;BME280;19905;53.370;-6.314;2022-12-07T00:22:20;102390.88;;;3.37;100.00
29935;BME280;19905;53.370;-6.314;2022-12-07T00:24:48;102385.69;;;3.36;100.00
29935;BME280;19905;53.370;-6.314;2022-12-07T00:27:18;102390.91;;;3.36;100.00
29935;BME280;19905;53.370;-6.314;2022-12-07T00:29:47;102381.38;;;3.33;100.00
29935;BME280;19905;53.370;-6.314;2022-12-07T00:32:16;102377.94;;;3.29;100.00
29935;BME280;19905;53.370;-6.314;2022-12-07T00:34:45;102382.34;;;3.27;100.00
29935;BME280;19905;53.370;-6.314;2022-12-07T00:37:13;102380.72;;;3.22;100.00
29935;BME280;19905;53.370;-6.314;2022-12-07T00:39:42;102379.03;;;3.19;100.00
29935;BME280;19905;53.370;-6.314;2022-12-07T00:42:11;102374.06;;;3.07;100.00
29935;BME280;19905;53.370;-6.314;2022-12-07T00:44:41;102375.78;;;3.06;100.00
29935;BME280;19905;53.370;-6.314;2022-12-07T00:47:09;102378.34;;;3.10;100.00
29935;BME280;19905;53.370;-6.314;2022-12-07T00:49:38;102385.34;;;3.06;100.00
29935;BME280;19905;53.370;-6.314;2022-12-07T00:52:07;102380.09;;;3.09;100.00
29935;BME280;19905;53.370;-6.314;2022-12-07T00:54:36;102373.97;;;3.12;100.00
29935;BME280;19905;53.370;-6.314;2022-12-07T00:57:04;102376.50;;;3.15;100.00
29935;BME280;19905;53.370;-6.314;2022-12-07T00:59:33;102377.34;;;3.17;100.00
29935;BME280;19905;53.370;-6.314;2022-12-07T01:02:03;102377.31;;;3.18;100.00
29935;BME280;19905;53.370;-6.314;2022-12-07T01:04:33;102375.69;;;3.13;100.00
29935;BME280;19905;53.370;-6.314;2022-12-07T01:07:02;102371.28;;;3.15;100.00
29935;BME280;19905;53.370;-6.314;2022-12-07T01:09:31;102373.88;;;3.16;100.00
29935;BME280;19905;53.370;-6.314;2022-12-07T01:12:00;102372.91;;;3.20;100.00
29935;BME280;19905;53.370;-6.314;2022-12-07T01:14:30;102381.63;;;3.21;100.00
29935;BME280;19905;53.370;-6.314;2022-12-07T01:16:59;102373.00;;;3.16;100.00
29935;BME280;19905;53.370;-6.314;2022-12-07T01:19:29;102377.34;;;3.15;100.00
29935;BME280;19905;53.370;-6.314;2022-12-07T01:21:58;102376.44;;;3.18;100.00
29935;BME280;19905;53.370;-6.314;2022-12-07T01:24:26;102370.47;;;3.13;100.00
29935;BME280;19905;53.370;-6.314;2022-12-07T01:26:56;102373.88;;;3.15;100.00
29935;BME280;19905;53.370;-6.314;2022-12-07T01:29:25;102376.53;;;3.13;100.00
29935;BME280;19905;53.370;-6.314;2022-12-07T01:31:54;102371.34;;;3.12;100.00
29935;BME280;19905;53.370;-6.314;2022-12-07T01:34:23;102360.91;;;3.10;100.00
29935;BME280;19905;53.370;-6.314;2022-12-07T01:36:53;102357.50;;;3.08;100.00
29935;BME280;19905;53.370;-6.314;2022-12-07T01:39:22;102350.56;;;3.07;100.00
29935;BME280;19905;53.370;-6.314;2022-12-07T01:41:51;102360.19;;;3.03;100.00
29935;BME280;19905;53.370;-6.314;2022-12-07T01:44:22;102353.25;;;3.01;100.00
29935;BME280;19905;53.370;-6.314;2022-12-07T01:46:53;102345.50;;;2.98;100.00
29935;BME280;19905;53.370;-6.314;2022-12-07T01:49:29;102338.56;;;2.95;100.00
29935;BME280;19905;53.370;-6.314;2022-12-07T01:52:12;102346.44;;;2.94;100.00
29935;BME280;19905;53.370;-6.314;2022-12-07T01:54:44;102345.59;;;2.92;100.00
29935;BME280;19905;53.370;-6.314;2022-12-07T01:57:15;102343.03;;;2.90;100.00
29935;BME280;19905;53.370;-6.314;2022-12-07T01:59:45;102350.91;;;2.89;100.00
29935;BME280;19905;53.370;-6.314;2022-12-07T02:02:20;102348.38;;;2.83;100.00
29935;BME280;19905;53.370;-6.314;2022-12-07T02:04:53;102349.31;;;2.78;100.00
29935;BME280;19905;53.370;-6.314;2022-12-07T02:07:26;102346.69;;;2.78;100.00
29935;BME280;19905;53.370;-6.314;2022-12-07T02:09:55;102342.41;;;2.76;100.00
29935;BME280;19905;53.370;-6.314;2022-12-07T02:12:26;102345.06;;;2.73;100.00
29935;BME280;19905;53.370;-6.314;2022-12-07T02:14:54;102340.88;;;2.64;100.00
29935;BME280;19905;53.370;-6.314;2022-12-07T02:17:28;102342.66;;;2.62;100.00
29935;BME280;19905;53.370;-6.314;2022-12-07T02:20:23;102344.50;;;2.55;100.00
29935;BME280;19905;53.370;-6.314;2022-12-07T02:23:23;102340.03;;;2.62;100.00
29935;BME280;19905;53.370;-6.314;2022-12-07T02:29:14;102345.16;;;2.68;100.00
29935;BME280;19905;53.370;-6.314;2022-12-07T02:31:52;102339.06;;;2.68;100.00
29935;BME280;19905;53.370;-6.314;2022-12-07T02:34:31;102340.03;;;2.62;100.00
29935;BME280;19905;53.370;-6.314;2022-12-07T02:37:08;102339.19;;;2.62;100.00
29935;BME280;19905;53.370;-6.314;2022-12-07T02:39:42;102339.28;;;2.57;100.00
29935;BME280;19905;53.370;-6.314;2022-12-07T02:42:17;102334.97;;;2.53;100.00
29935;BME280;19905;53.370;-6.314;2022-12-07T02:44:52;102335.84;;;2.52;100.00
29935;BME280;19905;53.370;-6.314;2022-12-07T02:47:22;102336.78;;;2.49;100.00
29935;BME280;19905;53.370;-6.314;2022-12-07T02:49:53;102335.06;;;2.47;100.00
29935;BME280;19905;53.370;-6.314;2022-12-07T02:52:22;102329.88;;;2.45;100.00
29935;BME280;19905;53.370;-6.314;2022-12-07T02:54:51;102333.31;;;2.47;100.00
29935;BME280;19905;53.370;-6.314;2022-12-07T02:57:37;102325.53;;;2.46;100.00
29935;BME280;19905;53.370;-6.314;2022-12-07T03:00:15;102324.72;;;2.44;100.00
29935;BME280;19905;53.370;-6.314;2022-12-07T03:02:51;102322.06;;;2.45;100.00
29935;BME280;19905;53.370;-6.314;2022-12-07T03:05:46;102326.34;;;2.49;100.00
29935;BME280;19905;53.370;-6.314;2022-12-07T03:08:24;102327.19;;;2.50;100.00
29935;BME280;19905;53.370;-6.314;2022-12-07T03:10:58;102325.41;;;2.52;100.00
29935;BME280;19905;53.370;-6.314;2022-12-07T03:13:33;102322.88;;;2.49;100.00
29935;BME280;19905;53.370;-6.314;2022-12-07T03:16:10;102324.63;;;2.47;100.00
29935;BME280;19905;53.370;-6.314;2022-12-07T03:18:43;102316.84;;;2.45;100.00
29935;BME280;19905;53.370;-6.314;2022-12-07T03:21:15;102322.06;;;2.45;100.00
29935;BME280;19905;53.370;-6.314;2022-12-07T03:23:48;102316.84;;;2.45;100.00
29935;BME280;19905;53.370;-6.314;2022-12-07T03:26:23;102320.31;;;2.46;100.00
29935;BME280;19905;53.370;-6.314;2022-12-07T03:28:55;102320.31;;;2.46;100.00
29935;BME280;19905;53.370;-6.314;2022-12-07T03:31:30;102309.84;;;2.47;100.00
29935;BME280;19905;53.370;-6.314;2022-12-07T03:34:06;102315.09;;;2.46;100.00
29935;BME280;19905;53.370;-6.314;2022-12-07T03:36:40;102310.72;;;2.48;100.00
29935;BME280;19905;53.370;-6.314;2022-12-07T03:39:19;102302.88;;;2.49;100.00
29935;BME280;19905;53.370;-6.314;2022-12-07T03:41:51;102303.75;;;2.48;100.00
29935;BME280;19905;53.370;-6.314;2022-12-07T03:44:21;102298.56;;;2.47;100.00
29935;BME280;19905;53.370;-6.314;2022-12-07T03:46:59;102295.09;;;2.48;100.00
29935;BME280;19905;53.370;-6.314;2022-12-07T03:49:35;102299.41;;;2.47;100.00
29935;BME280;19905;53.370;-6.314;2022-12-07T03:52:11;102303.00;;;2.42;100.00
29935;BME280;19905;53.370;-6.314;2022-12-07T03:54:45;102300.47;;;2.37;100.00
29935;BME280;19905;53.370;-6.314;2022-12-07T03:57:19;102302.31;;;2.29;100.00
29935;BME280;19905;53.370;-6.314;2022-12-07T03:59:51;102299.84;;;2.23;100.00
29935;BME280;19905;53.370;-6.314;2022-12-07T04:02:22;102294.69;;;2.18;100.00
29935;BME280;19905;53.370;-6.314;2022-12-07T04:04:55;102297.28;;;2.18;100.00
29935;BME280;19905;53.370;-6.314;2022-12-07T04:07:24;102292.13;;;2.17;100.00
29935;BME280;19905;53.370;-6.314;2022-12-07T04:09:55;102286.88;;;2.18;100.00
29935;BME280;19905;53.370;-6.314;2022-12-07T04:12:24;102285.13;;;2.20;100.00
29935;BME280;19905;53.370;-6.314;2022-12-07T04:14:55;102287.81;;;2.16;100.00
29935;BME280;19905;53.370;-6.314;2022-12-07T04:17:27;102287.84;;;2.13;100.00
29935;BME280;19905;53.370;-6.314;2022-12-07T04:19:55;102291.34;;;2.10;100.00
29935;BME280;19905;53.370;-6.314;2022-12-07T04:22:24;102282.72;;;2.07;100.00
29935;BME280;19905;53.370;-6.314;2022-12-07T04:24:54;102288.84;;;2.04;100.00
29935;BME280;19905;53.370;-6.314;2022-12-07T04:27:23;102278.44;;;2.01;100.00
29935;BME280;19905;53.370;-6.314;2022-12-07T04:29:52;102275.91;;;1.98;100.00
29935;BME280;19905;53.370;-6.314;2022-12-07T04:32:23;102275.94;;;1.95;100.00
29935;BME280;19905;53.370;-6.314;2022-12-07T04:34:53;102275.16;;;1.90;100.00
29935;BME280;19905;53.370;-6.314;2022-12-07T04:37:22;102275.28;;;1.84;100.00
29935;BME280;19905;53.370;-6.314;2022-12-07T04:39:51;102275.31;;;1.81;100.00
29935;BME280;19905;53.370;-6.314;2022-12-07T04:42:19;102269.31;;;1.75;100.00
29935;BME280;19905;53.370;-6.314;2022-12-07T04:44:49;102268.44;;;1.75;100.00
29935;BME280;19905;53.370;-6.314;2022-12-07T04:47:18;102276.22;;;1.76;100.00
29935;BME280;19905;53.370;-6.314;2022-12-07T04:49:47;102272.72;;;1.77;100.00
29935;BME280;19905;53.370;-6.314;2022-12-07T04:52:17;102270.09;;;1.81;100.00
29935;BME280;19905;53.370;-6.314;2022-12-07T04:54:46;102270.91;;;1.83;100.00
29935;BME280;19905;53.370;-6.314;2022-12-07T04:57:16;102266.50;;;1.88;100.00
29935;BME280;19905;53.370;-6.314;2022-12-07T04:59:44;102263.81;;;1.92;100.00
29935;BME280;19905;53.370;-6.314;2022-12-07T05:02:14;102257.75;;;1.93;100.00
29935;BME280;19905;53.370;-6.314;2022-12-07T05:04:42;102267.28;;;1.94;100.00
29935;BME280;19905;53.370;-6.314;2022-12-07T05:07:11;102268.09;;;1.98;100.00
29935;BME280;19905;53.370;-6.314;2022-12-07T05:09:42;102269.81;;;1.99;100.00
29935;BME280;19905;53.370;-6.314;2022-12-07T05:12:11;102266.28;;;2.01;100.00
29935;BME280;19905;53.370;-6.314;2022-12-07T05:14:39;102262.78;;;2.04;100.00
29935;BME280;19905;53.370;-6.314;2022-12-07T05:17:14;102266.16;;;2.09;100.00
29935;BME280;19905;53.370;-6.314;2022-12-07T05:19:44;102269.63;;;2.11;100.00
29935;BME280;19905;53.370;-6.314;2022-12-07T05:22:13;102258.31;;;2.12;100.00
29935;BME280;19905;53.370;-6.314;2022-12-07T05:24:47;102263.50;;;2.14;100.00
29935;BME280;19905;53.370;-6.314;2022-12-07T05:27:17;102266.06;;;2.15;100.00
29935;BME280;19905;53.370;-6.314;2022-12-07T05:29:46;102272.16;;;2.16;100.00
29935;BME280;19905;53.370;-6.314;2022-12-07T05:32:14;102271.25;;;2.17;100.00
29935;BME280;19905;53.370;-6.314;2022-12-07T05:34:43;102256.44;;;2.19;100.00
29935;BME280;19905;53.370;-6.314;2022-12-07T05:37:12;102272.13;;;2.17;100.00
29935;BME280;19905;53.370;-6.314;2022-12-07T05:39:40;102271.28;;;2.15;100.00
29935;BME280;19905;53.370;-6.314;2022-12-07T05:42:14;102261.78;;;2.13;100.00
29935;BME280;19905;53.370;-6.314;2022-12-07T05:44:45;102267.84;;;2.13;100.00
29935;BME280;19905;53.370;-6.314;2022-12-07T05:47:15;102264.41;;;2.11;100.00
29935;BME280;19905;53.370;-6.314;2022-12-07T05:49:44;102261.84;;;2.08;100.00
29935;BME280;19905;53.370;-6.314;2022-12-07T05:52:14;102264.50;;;2.05;100.00
29935;BME280;19905;53.370;-6.314;2022-12-07T05:54:43;102265.41;;;2.01;100.00
29935;BME280;19905;53.370;-6.314;2022-12-07T05:57:13;102258.50;;;2.00;100.00
29935;BME280;19905;53.370;-6.314;2022-12-07T05:59:42;102262.84;;;1.99;100.00
29935;BME280;19905;53.370;-6.314;2022-12-07T06:02:13;102261.22;;;1.94;100.00
29935;BME280;19905;53.370;-6.314;2022-12-07T06:04:44;102263.03;;;1.89;100.00
29935;BME280;19905;53.370;-6.314;2022-12-07T06:07:15;102257.94;;;1.81;100.00
29935;BME280;19905;53.370;-6.314;2022-12-07T06:09:44;102258.81;;;1.78;100.00
29935;BME280;19905;53.370;-6.314;2022-12-07T06:12:15;102260.53;;;1.81;100.00
29935;BME280;19905;53.370;-6.314;2022-12-07T06:15:01;102257.97;;;1.78;100.00
29935;BME280;19905;53.370;-6.314;2022-12-07T06:17:31;102252.81;;;1.73;100.00
29935;BME280;19905;53.370;-6.314;2022-12-07T06:20:05;102249.44;;;1.68;100.00
29935;BME280;19905;53.370;-6.314;2022-12-07T06:22:34;102244.22;;;1.70;100.00
29935;BME280;19905;53.370;-6.314;2022-12-07T06:25:03;102242.44;;;1.72;100.00
29935;BME280;19905;53.370;-6.314;2022-12-07T06:27:36;102245.09;;;1.67;100.00
29935;BME280;19905;53.370;-6.314;2022-12-07T06:30:06;102235.59;;;1.66;100.00
29935;BME280;19905;53.370;-6.314;2022-12-07T06:32:37;102242.53;;;1.64;100.00
29935;BME280;19905;53.370;-6.314;2022-12-07T06:35:06;102249.63;;;1.56;100.00
29935;BME280;19905;53.370;-6.314;2022-12-07T06:37:35;102240.91;;;1.56;100.00
29935;BME280;19905;53.370;-6.314;2022-12-07T06:40:08;102254.97;;;1.45;100.00
29935;BME280;19905;53.370;-6.314;2022-12-07T06:42:39;102248.00;;;1.47;100.00
29935;BME280;19905;53.370;-6.314;2022-12-07T06:45:08;102243.66;;;1.46;100.00
29935;BME280;19905;53.370;-6.314;2022-12-07T06:47:37;102246.31;;;1.42;100.00
29935;BME280;19905;53.370;-6.314;2022-12-07T06:50:09;102237.66;;;1.41;100.00
29935;BME280;19905;53.370;-6.314;2022-12-07T06:52:38;102246.41;;;1.36;100.00
29935;BME280;19905;53.370;-6.314;2022-12-07T06:55:07;102240.38;;;1.34;100.00
29935;BME280;19905;53.370;-6.314;2022-12-07T06:57:38;102249.00;;;1.39;100.00
29935;BME280;19905;53.370;-6.314;2022-12-07T07:00:08;102247.41;;;1.27;100.00
29935;BME280;19905;53.370;-6.314;2022-12-07T07:02:36;102244.81;;;1.25;100.00
29935;BME280;19905;53.370;-6.314;2022-12-07T07:05:05;102241.44;;;1.19;100.00
29935;BME280;19905;53.370;-6.314;2022-12-07T07:07:35;102251.84;;;1.20;100.00
29935;BME280;19905;53.370;-6.314;2022-12-07T07:10:25;102253.56;;;1.21;100.00
29935;BME280;19905;53.370;-6.314;2022-12-07T07:12:56;102248.38;;;1.20;100.00
29935;BME280;19905;53.370;-6.314;2022-12-07T07:15:25;102248.34;;;1.21;100.00
29935;BME280;19905;53.370;-6.314;2022-12-07T07:21:24;102242.25;;;1.22;100.00
29935;BME280;19905;53.370;-6.314;2022-12-07T07:28:14;102243.91;;;1.30;100.00
29935;BME280;19905;53.370;-6.314;2022-12-07T08:06:14;102247.47;;;1.22;100.00
29935;BME280;19905;53.370;-6.314;2022-12-07T08:10:11;102250.06;;;1.24;100.00
29935;BME280;19905;53.370;-6.314;2022-12-07T08:12:42;102252.66;;;1.24;100.00
29935;BME280;19905;53.370;-6.314;2022-12-07T08:15:26;102252.66;;;1.22;100.00
29935;BME280;19905;53.370;-6.314;2022-12-07T08:17:58;102247.44;;;1.25;100.00
29935;BME280;19905;53.370;-6.314;2022-12-07T08:20:30;102245.84;;;1.14;100.00
29935;BME280;19905;53.370;-6.314;2022-12-07T08:33:57;102239.94;;;1.01;100.00
29935;BME280;19905;53.370;-6.314;2022-12-07T11:25:53;102131.78;;;3.59;100.00
29935;BME280;19905;53.370;-6.314;2022-12-07T11:28:36;102122.88;;;3.66;100.00
29935;BME280;19905;53.370;-6.314;2022-12-07T11:31:14;102120.16;;;3.72;100.00
29935;BME280;19905;53.370;-6.314;2022-12-07T11:33:59;102124.06;;;3.88;100.00
29935;BME280;19905;53.370;-6.314;2022-12-07T11:36:36;102122.06;;;3.98;100.00
29935;BME280;19905;53.370;-6.314;2022-12-07T11:39:15;102117.19;;;4.17;100.00
29935;BME280;19905;53.370;-6.314;2022-12-07T11:41:52;102114.19;;;4.30;100.00
29935;BME280;19905;53.370;-6.314;2022-12-07T11:44:30;102107.13;;;4.34;100.00
29935;BME280;19905;53.370;-6.314;2022-12-07T11:47:05;102104.31;;;4.42;100.00
29935;BME280;19905;53.370;-6.314;2022-12-07T11:49:43;102101.78;;;4.39;100.00
29935;BME280;19905;53.370;-6.314;2022-12-07T11:52:21;102103.31;;;4.46;100.00
29935;BME280;19905;53.370;-6.314;2022-12-07T11:54:53;102091.91;;;4.48;100.00
29935;BME280;19905;53.370;-6.314;2022-12-07T11:57:27;102085.88;;;4.46;100.00
29935;BME280;19905;53.370;-6.314;2022-12-07T12:00:03;102079.41;;;4.58;100.00
29935;BME280;19905;53.370;-6.314;2022-12-07T12:02:47;102071.00;;;4.76;100.00
29935;BME280;19905;53.370;-6.314;2022-12-07T12:05:19;102064.78;;;4.80;100.00
29935;BME280;19905;53.370;-6.314;2022-12-07T12:07:57;102065.59;;;4.82;100.00
29935;BME280;19905;53.370;-6.314;2022-12-07T12:10:56;102062.59;;;4.95;100.00
29935;BME280;19905;53.370;-6.314;2022-12-07T12:14:00;102059.59;;;5.07;100.00
29935;BME280;19905;53.370;-6.314;2022-12-07T12:20:13;102042.66;;;5.44;100.00
29935;BME280;19905;53.370;-6.314;2022-12-07T12:22:47;102050.34;;;5.50;100.00
29935;BME280;19905;53.370;-6.314;2022-12-07T12:25:23;102043.22;;;5.53;100.00
29935;BME280;19905;53.370;-6.314;2022-12-07T12:27:55;102034.16;;;5.64;100.00
29935;BME280;19905;53.370;-6.314;2022-12-07T12:30:34;102030.16;;;5.77;100.00
29935;BME280;19905;53.370;-6.314;2022-12-07T12:33:06;102029.81;;;5.88;100.00
29935;BME280;19905;53.370;-6.314;2022-12-07T12:35:42;102027.91;;;5.93;100.00
29935;BME280;19905;53.370;-6.314;2022-12-07T12:38:30;102018.16;;;5.96;100.00
29935;BME280;19905;53.370;-6.314;2022-12-07T12:41:02;102012.06;;;5.96;100.00
29935;BME280;19905;53.370;-6.314;2022-12-07T12:43:49;102010.06;;;6.02;100.00
29935;BME280;19905;53.370;-6.314;2022-12-07T12:46:52;102003.03;;;6.03;100.00
29935;BME280;19905;53.370;-6.314;2022-12-07T12:49:42;102006.34;;;6.08;100.00
29935;BME280;19905;53.370;-6.314;2022-12-07T13:01:44;101986.91;;;6.14;100.00
29935;BME280;19905;53.370;-6.314;2022-12-07T13:07:57;101975.84;;;6.05;100.00
29935;BME280;19905;53.370;-6.314;2022-12-07T13:10:40;101969.59;;;6.09;100.00
29935;BME280;19905;53.370;-6.314;2022-12-07T13:13:39;101969.63;;;6.08;100.00
29935;BME280;19905;53.370;-6.314;2022-12-07T13:19:55;101971.63;;;6.01;100.00
29935;BME280;19905;53.370;-6.314;2022-12-07T13:22:43;101967.34;;;5.99;100.00
29935;BME280;19905;53.370;-6.314;2022-12-07T13:25:33;101966.25;;;6.04;100.00
29935;BME280;19905;53.370;-6.314;2022-12-07T13:28:48;101962.00;;;6.02;100.00
29935;BME280;19905;53.370;-6.314;2022-12-07T13:31:47;101961.50;;;5.92;100.00
29935;BME280;19905;53.370;-6.314;2022-12-07T13:34:31;101969.75;;;5.80;100.00
29935;BME280;19905;53.370;-6.314;2022-12-07T13:37:04;101956.81;;;5.75;100.00
29935;BME280;19905;53.370;-6.314;2022-12-07T13:42:24;101951.56;;;5.75;100.00
29935;BME280;19905;53.370;-6.314;2022-12-07T13:44:54;101947.94;;;5.79;100.00
29935;BME280;19905;53.370;-6.314;2022-12-07T13:47:34;101948.72;;;5.81;100.00
29935;BME280;19905;53.370;-6.314;2022-12-07T13:50:23;101935.00;;;5.75;100.00
29935;BME280;19905;53.370;-6.314;2022-12-07T13:53:15;101935.06;;;5.73;100.00
29935;BME280;19905;53.370;-6.314;2022-12-07T13:55:52;101941.16;;;5.74;100.00
29935;BME280;19905;53.370;-6.314;2022-12-07T13:58:31;101946.44;;;5.72;100.00
29935;BME280;19905;53.370;-6.314;2022-12-07T14:01:05;101939.44;;;5.73;100.00
29935;BME280;19905;53.370;-6.314;2022-12-07T14:03:36;101934.31;;;5.70;100.00
29935;BME280;19905;53.370;-6.314;2022-12-07T14:06:18;101929.84;;;5.72;100.00
29935;BME280;19905;53.370;-6.314;2022-12-07T14:08:52;101929.00;;;5.71;100.00
29935;BME280;19905;53.370;-6.314;2022-12-07T14:11:37;101933.22;;;5.75;100.00
29935;BME280;19905;53.370;-6.314;2022-12-07T14:14:19;101921.78;;;5.78;100.00
29935;BME280;19905;53.370;-6.314;2022-12-07T14:17:00;101914.75;;;5.78;100.00
29935;BME280;19905;53.370;-6.314;2022-12-07T14:19:48;101899.81;;;5.80;100.00
29935;BME280;19905;53.370;-6.314;2022-12-07T14:22:27;101898.47;;;5.94;100.00
29935;BME280;19905;53.370;-6.314;2022-12-07T14:25:19;101892.69;;;5.84;100.00
29935;BME280;19905;53.370;-6.314;2022-12-07T14:27:52;101894.28;;;5.88;100.00
29935;BME280;19905;53.370;-6.314;2022-12-07T14:30:26;101887.00;;;6.20;100.00
29935;BME280;19905;53.370;-6.314;2022-12-07T14:36:15;101877.13;;;7.69;100.00
29935;BME280;19905;53.370;-6.314;2022-12-07T14:38:44;101879.69;;;8.08;100.00
29935;BME280;19905;53.370;-6.314;2022-12-07T14:41:16;101870.88;;;7.72;100.00
29935;BME280;19905;53.370;-6.314;2022-12-07T14:44:09;101862.28;;;6.25;100.00
29935;BME280;19905;53.370;-6.314;2022-12-07T14:46:59;101870.31;;;5.75;100.00
29935;BME280;19905;53.370;-6.314;2022-12-07T14:49:50;101870.53;;;5.46;100.00
29935;BME280;19905;53.370;-6.314;2022-12-07T14:52:28;101871.75;;;5.35;100.00
29935;BME280;19905;53.370;-6.314;2022-12-07T14:55:23;101885.09;;;5.29;100.00
29935;BME280;19905;53.370;-6.314;2022-12-07T14:58:00;101881.69;;;5.27;100.00
29935;BME280;19905;53.370;-6.314;2022-12-07T15:00:32;101880.06;;;5.23;100.00
29935;BME280;19905;53.370;-6.314;2022-12-07T15:03:03;101874.00;;;5.21;100.00
29935;BME280;19905;53.370;-6.314;2022-12-07T15:08:04;101866.94;;;5.00;100.00
29935;BME280;19905;53.370;-6.314;2022-12-07T15:10:33;101864.63;;;4.91;100.00
29935;BME280;19905;53.370;-6.314;2022-12-07T15:13:07;101859.66;;;4.83;100.00
29935;BME280;19905;53.370;-6.314;2022-12-07T15:15:55;101864.03;;;4.82;100.00
29935;BME280;19905;53.370;-6.314;2022-12-07T15:18:26;101861.41;;;4.82;100.00
29935;BME280;19905;53.370;-6.314;2022-12-07T15:20:54;101857.97;;;4.80;100.00
29935;BME280;19905;53.370;-6.314;2022-12-07T15:23:26;101857.19;;;4.78;100.00
29935;BME280;19905;53.370;-6.314;2022-12-07T15:25:54;101856.38;;;4.76;100.00
29935;BME280;19905;53.370;-6.314;2022-12-07T15:28:25;101859.88;;;4.77;100.00
29935;BME280;19905;53.370;-6.314;2022-12-07T15:30:58;101856.38;;;4.76;100.00
29935;BME280;19905;53.370;-6.314;2022-12-07T15:33:52;101847.78;;;4.73;100.00
29935;BME280;19905;53.370;-6.314;2022-12-07T15:36:25;101847.03;;;4.69;100.00
29935;BME280;19905;53.370;-6.314;2022-12-07T15:38:56;101842.75;;;4.67;100.00
29935;BME280;19905;53.370;-6.314;2022-12-07T15:41:40;101853.22;;;4.67;100.00
29935;BME280;19905;53.370;-6.314;2022-12-07T15:44:12;101849.84;;;4.63;100.00
29935;BME280;19905;53.370;-6.314;2022-12-07T15:47:00;101837.72;;;4.61;100.00
29935;BME280;19905;53.370;-6.314;2022-12-07T15:53:25;101838.47;;;4.38;100.00
29935;BME280;19905;53.370;-6.314;2022-12-07T15:55:54;101839.63;;;4.29;100.00
29935;BME280;19905;53.370;-6.314;2022-12-07T15:58:23;101832.16;;;4.17;100.00
29935;BME280;19905;53.370;-6.314;2022-12-07T16:00:52;101833.41;;;4.05;100.00
29935;BME280;19905;53.370;-6.314;2022-12-07T16:03:21;101835.31;;;4.00;100.00
29935;BME280;19905;53.370;-6.314;2022-12-07T16:05:52;101830.09;;;4.00;100.00
29935;BME280;19905;53.370;-6.314;2022-12-07T16:08:21;101823.44;;;3.90;100.00
29935;BME280;19905;53.370;-6.314;2022-12-07T16:10:50;101816.59;;;3.86;100.00
29935;BME280;19905;53.370;-6.314;2022-12-07T16:13:23;101822.75;;;3.83;100.00
29935;BME280;19905;53.370;-6.314;2022-12-07T16:15:53;101826.38;;;3.79;100.00
29935;BME280;19905;53.370;-6.314;2022-12-07T16:18:22;101826.38;;;3.79;100.00
29935;BME280;19905;53.370;-6.314;2022-12-07T16:20:53;101817.72;;;3.77;100.00
29935;BME280;19905;53.370;-6.314;2022-12-07T16:23:22;101813.34;;;3.77;100.00
29935;BME280;19905;53.370;-6.314;2022-12-07T16:25:50;101817.69;;;3.78;100.00
29935;BME280;19905;53.370;-6.314;2022-12-07T16:28:20;101816.78;;;3.79;100.00
29935;BME280;19905;53.370;-6.314;2022-12-07T16:31:00;101822.97;;;3.75;100.00
29935;BME280;19905;53.370;-6.314;2022-12-07T16:33:29;101823.91;;;3.74;100.00
29935;BME280;19905;53.370;-6.314;2022-12-07T16:36:00;101822.19;;;3.73;100.00
29935;BME280;19905;53.370;-6.314;2022-12-07T16:38:32;101821.47;;;3.68;100.00
29935;BME280;19905;53.370;-6.314;2022-12-07T16:41:05;101818.00;;;3.68;100.00
29935;BME280;19905;53.370;-6.314;2022-12-07T16:43:35;101813.91;;;3.59;100.00
29935;BME280;19905;53.370;-6.314;2022-12-07T16:46:06;101806.13;;;3.58;100.00
29935;BME280;19905;53.370;-6.314;2022-12-07T16:48:37;101809.88;;;3.49;100.00
29935;BME280;19905;53.370;-6.314;2022-12-07T16:54:52;101816.28;;;3.37;100.00
29935;BME280;19905;53.370;-6.314;2022-12-07T16:57:23;101818.22;;;3.30;100.00
29935;BME280;19905;53.370;-6.314;2022-12-07T16:59:53;101820.97;;;3.26;100.00
29935;BME280;19905;53.370;-6.314;2022-12-07T17:02:25;101820.13;;;3.25;100.00
29935;BME280;19905;53.370;-6.314;2022-12-07T17:04:55;101814.06;;;3.23;100.00
29935;BME280;19905;53.370;-6.314;2022-12-07T17:07:25;101812.31;;;3.24;100.00
29935;BME280;19905;53.370;-6.314;2022-12-07T17:10:00;101813.16;;;3.24;100.00
29935;BME280;19905;53.370;-6.314;2022-12-07T17:12:31;101807.91;;;3.26;100.00
29935;BME280;19905;53.370;-6.314;2022-12-07T17:15:00;101809.81;;;3.21;100.00
29935;BME280;19905;53.370;-6.314;2022-12-07T17:17:50;101804.72;;;3.16;100.00
29935;BME280;19905;53.370;-6.314;2022-12-07T17:20:20;101802.22;;;3.12;100.00
29935;BME280;19905;53.370;-6.314;2022-12-07T17:22:52;101791.09;;;3.05;100.00
29935;BME280;19905;53.370;-6.314;2022-12-07T17:25:23;101797.28;;;3.01;100.00
29935;BME280;19905;53.370;-6.314;2022-12-07T17:27:54;101796.63;;;2.94;100.00
29935;BME280;19905;53.370;-6.314;2022-12-07T17:30:23;101794.00;;;2.94;100.00
29935;BME280;19905;53.370;-6.314;2022-12-07T17:32:53;101790.69;;;2.88;100.00
29935;BME280;19905;53.370;-6.314;2022-12-07T17:35:28;101793.41;;;2.83;100.00
29935;BME280;19905;53.370;-6.314;2022-12-07T17:37:58;101786.56;;;2.79;100.00
29935;BME280;19905;53.370;-6.314;2022-12-07T17:40:28;101785.81;;;2.75;100.00